• Join FlightAware (Why Join?)
  • Login
  • US Flag 
09:25AM EDT


 

Airport Tracker/Info


-or-


 

Live Flight TrackerFlight Track Log ✈ N432ER ✈ 27-Apr-2013 ✈ KMSN - 3CK

Flight Track Log - Related Links

Times and Time Zones

All times are in EDT time to prevent confusion due to time zone crossing. See the N432ER flight status page for this flight to view local times or setup timezone preferences in your user account.

Time Position Orientation Groundspeed Altitude Reporting Facility
EDT Latitude Longitude Course Direction KTS MPH feet Rate Location/Type
01:04PM 43.0822 -89.3344 163° South 68 78 4,100  Level Chicago Center
01:05PM 43.0639 -89.3242 158° South 68 78 4,700 420 Climbing Chicago Center
01:06PM 43.0422 -89.3236 179° South 73 84 5,000 120 Climbing Chicago Center
01:07PM 43.0136 -89.3189 173° South 89 102 5,000  Level Chicago Center
01:08PM 42.9776 -89.2643 163° South  Level FlightAware Approximate
01:08PM 42.9861 -89.3042 159° South 99 114 5,000  Level Chicago Center
01:09PM 42.9514 -89.2533 163° South  Level FlightAware Approximate
01:09PM 42.9569 -89.2775 146° Southeast 104 120 5,100  Level Chicago Center
01:10PM 42.9289 -89.2700 169° South 107 123 5,000 -60 Descending Chicago Center
01:11PM 42.8997 -89.2672 176° South 105 121 5,000  Level Chicago Center
01:12PM 42.8717 -89.2631 174° South 103 119 5,000  Level Chicago Center
01:13PM 42.8508 -89.2350 135° Southeast 105 121 5,000  Level Chicago Center
01:14PM 42.8256 -89.2169 152° Southeast 104 120 5,000  Level Chicago Center
01:15PM 42.7997 -89.2014 156° South 103 119 5,000 -60 Level Chicago Center
01:16PM 42.7681 -89.1906 166° South 102 117 4,900 -60 Descending Chicago Center
01:17PM 42.7428 -89.1878 175° South 97 112 4,900  Level Chicago Center
01:18PM 42.7172 -89.1853 176° South 95 109 5,000  Climbing Chicago Center
01:19PM 42.6936 -89.1739 160° South 91 105 5,000  Level Chicago Center
01:20PM 42.6714 -89.1517 144° Southeast 93 107 5,100  Climbing Chicago Center
01:21PM 42.6447 -89.1325 152° Southeast 100 115 5,000 -60 Descending Chicago Center
01:22PM 42.6106 -89.1319 179° South 105 121 5,000  Level Chicago Center
01:23PM 42.5844 -89.1167 157° South 103 119 5,000  Level Chicago Center
01:24PM 42.5594 -89.0983 152° Southeast 103 119 5,000  Level Chicago Center
01:25PM 42.5519 -89.0636 106° East 109 125 5,000  Level Chicago Center
01:26PM 42.5475 -89.0239 99° East 106 122 5,000 -420 Level Chicago Center
01:27PM 42.5411 -88.9831 102° East 107 123 4,200 -540 Descending Chicago Center
01:28PM 42.5336 -88.9428 104° East 109 125 4,000 -120 Descending Chicago Center
01:29PM 42.5289 -88.8961 98° East 108 124 4,000  Level Chicago Center
01:30PM 42.5217 -88.8564 104° East 108 124 4,000 -60 Level Chicago Center
01:31PM 42.5103 -88.8164 111° Southeast 110 127 3,900  Descending Chicago Center
01:32PM 42.4942 -88.7833 123° Southeast 109 125 4,100  Climbing Chicago Center
01:34PM 42.4878 -88.7431 102° East 108 124 3,900  Descending Chicago Center
01:35PM 42.4739 -88.7083 118° Southeast 109 125 4,100  Climbing Chicago Center
01:36PM 42.4531 -88.6758 131° Southeast 100 115 4,000 -60 Descending Chicago Center
01:37PM 42.4436 -88.6350 107° East 108 124 4,000 -60 Level Chicago Center
01:38PM 42.4261 -88.6003 124° Southeast 113 130 3,900  Descending Chicago Center
01:39PM 42.4053 -88.5728 136° Southeast 108 124 4,000 60 Climbing Chicago Center
01:40PM 42.3867 -88.5489 137° Southeast 97 112 4,100  Climbing Chicago Center
01:41PM 42.3681 -88.5192 130° Southeast 101 116 4,000 -180 Descending Chicago Center
01:42PM 42.3533 -88.4825 119° Southeast 97 112 3,800 -480 Descending Chicago Center
01:43PM 42.3314 -88.4569 139° Southeast 100 115 3,100 -600 Descending Chicago Center
01:44PM 42.3111 -88.4267 132° Southeast 103 119 2,600 -300 Descending Chicago Center
01:45PM 42.2892 -88.4014 140° Southeast 102 117 2,500 -120 Descending Chicago Center